Time;durP1;ratioP1;P1;durP2;ratioP2;P2;SDS_P1;SDS_P2;PMS_P1;PMS_P2;Temp;Humidity;BMP_temperature;BMP_pressure;BME280_temperature;BME280_humidity;BME280_pressure;Samples;Min_cycle;Max_cycle;Signal;HPM_P1;HPM_P2
2023/03/11 00:00:41;;;;;;;25.25;4.55;;;;;;;;;;5075219;28;20097;-74
2023/03/11 00:03:08;;;;;;;27.15;4.25;;;;;;;;;;5070532;28;20028;-75
2023/03/11 00:05:38;;;;;;;22.33;5.45;;;;;;;;;;5080811;28;20106;-74
2023/03/11 00:08:06;;;;;;;26.88;5.43;;;;;;;;;;5074296;28;20641;-74
2023/03/11 00:10:33;;;;;;;22.83;4.55;;;;;;;;;;5077928;28;20104;-74
2023/03/11 00:13:00;;;;;;;24.08;3.53;;;;;;;;;;5074997;28;20039;-73
2023/03/11 00:15:27;;;;;;;18.08;3.60;;;;;;;;;;5079624;28;20020;-74
2023/03/11 00:17:53;;;;;;;33.22;4.70;;;;;;;;;;5070611;28;20143;-74
2023/03/11 00:20:24;;;;;;;17.38;3.42;;;;;;;;;;5075513;28;20115;-74
2023/03/11 00:22:51;;;;;;;19.10;4.38;;;;;;;;;;5077767;28;20136;-74
2023/03/11 00:25:17;;;;;;;18.23;4.25;;;;;;;;;;5080780;28;20039;-73
2023/03/11 00:27:44;;;;;;;20.90;3.58;;;;;;;;;;5077301;28;20182;-73
2023/03/11 00:30:11;;;;;;;34.22;4.57;;;;;;;;;;5077634;28;20073;-74
2023/03/11 00:32:37;;;;;;;13.63;3.30;;;;;;;;;;5081656;28;20412;-74
2023/03/11 00:35:04;;;;;;;20.27;3.50;;;;;;;;;;5081674;28;20099;-74
2023/03/11 00:37:30;;;;;;;22.77;3.53;;;;;;;;;;5080814;28;20032;-74
2023/03/11 00:39:56;;;;;;;15.02;3.55;;;;;;;;;;5073450;28;20338;-74
2023/03/11 00:42:22;;;;;;;22.00;3.75;;;;;;;;;;5080050;28;20103;-74
2023/03/11 00:44:49;;;;;;;17.50;3.90;;;;;;;;;;5078580;28;20015;-74
2023/03/11 00:47:15;;;;;;;24.63;4.80;;;;;;;;;;5072323;28;20627;-75
2023/03/11 00:49:41;;;;;;;20.73;4.85;;;;;;;;;;5079175;28;20035;-74
2023/03/11 00:52:08;;;;;;;19.25;4.38;;;;;;;;;;5079448;28;20043;-74
2023/03/11 00:54:34;;;;;;;36.83;5.60;;;;;;;;;;5080154;28;20104;-74
2023/03/11 00:57:00;;;;;;;25.50;4.25;;;;;;;;;;5076305;28;20024;-74
2023/03/11 00:59:26;;;;;;;23.90;4.28;;;;;;;;;;5079413;28;20022;-74
2023/03/11 01:01:53;;;;;;;14.45;3.47;;;;;;;;;;5075561;28;20157;-74
2023/03/11 01:04:19;;;;;;;19.15;3.53;;;;;;;;;;5081510;28;20023;-75
2023/03/11 01:06:45;;;;;;;21.38;4.32;;;;;;;;;;5078089;28;20024;-73
2023/03/11 01:09:11;;;;;;;24.20;3.83;;;;;;;;;;5077369;28;20091;-73
2023/03/11 01:11:37;;;;;;;17.08;3.80;;;;;;;;;;5080545;28;20032;-74
2023/03/11 01:14:04;;;;;;;25.52;4.95;;;;;;;;;;5076427;28;20123;-74
2023/03/11 01:16:30;;;;;;;14.15;4.15;;;;;;;;;;5070307;28;20086;-73
2023/03/11 01:18:56;;;;;;;17.10;3.70;;;;;;;;;;5082095;28;20532;-74
2023/03/11 01:21:22;;;;;;;16.77;3.10;;;;;;;;;;5075252;28;20225;-74
2023/03/11 01:23:48;;;;;;;15.95;3.05;;;;;;;;;;5081214;28;20024;-74
2023/03/11 01:26:15;;;;;;;15.43;3.28;;;;;;;;;;5080953;28;20099;-73
2023/03/11 01:28:41;;;;;;;13.13;3.13;;;;;;;;;;5073498;28;20819;-73
2023/03/11 01:31:08;;;;;;;19.08;2.88;;;;;;;;;;5081935;28;20020;-74
2023/03/11 01:33:34;;;;;;;15.07;4.22;;;;;;;;;;5074336;28;20032;-74
2023/03/11 01:36:01;;;;;;;18.92;3.72;;;;;;;;;;5077948;28;20648;-74
2023/03/11 01:38:27;;;;;;;20.50;3.65;;;;;;;;;;5075367;28;20111;-74
2023/03/11 01:40:53;;;;;;;21.80;3.45;;;;;;;;;;5080164;28;20049;-74
2023/03/11 01:43:40;;;;;;;19.15;3.90;;;;;;;;;;5075103;28;20020;-74
2023/03/11 01:46:12;;;;;;;15.75;3.00;;;;;;;;;;5074358;28;20058;-74
2023/03/11 01:48:39;;;;;;;18.75;4.07;;;;;;;;;;5076115;28;20612;-74
2023/03/11 01:51:06;;;;;;;18.83;2.92;;;;;;;;;;5079140;28;20032;-74
2023/03/11 01:53:33;;;;;;;14.43;3.42;;;;;;;;;;5080844;28;20133;-74
2023/03/11 01:56:01;;;;;;;18.50;4.30;;;;;;;;;;5071532;28;20297;-74
2023/03/11 01:58:30;;;;;;;19.55;3.80;;;;;;;;;;5076107;28;20372;-74
2023/03/11 02:00:57;;;;;;;18.70;3.55;;;;;;;;;;5082326;28;20031;-75
2023/03/11 02:03:31;;;;;;;16.65;3.35;;;;;;;;;;5073318;28;20024;-74
2023/03/11 02:05:59;;;;;;;15.32;2.78;;;;;;;;;;5077678;28;20492;-74
2023/03/11 02:08:26;;;;;;;14.00;3.83;;;;;;;;;;5078574;28;20036;-74
2023/03/11 02:10:53;;;;;;;13.57;2.83;;;;;;;;;;5073963;28;20558;-74
2023/03/11 02:13:20;;;;;;;21.65;3.75;;;;;;;;;;5078337;28;20042;-73
2023/03/11 02:15:46;;;;;;;18.77;4.07;;;;;;;;;;5071262;28;20027;-74
2023/03/11 02:18:13;;;;;;;17.60;4.00;;;;;;;;;;5076917;28;20601;-74
2023/03/11 02:21:01;;;;;;;13.73;3.42;;;;;;;;;;5078237;28;20194;-74
2023/03/11 02:23:32;;;;;;;15.43;3.05;;;;;;;;;;5069383;28;20789;-74
2023/03/11 02:26:01;;;;;;;20.88;3.45;;;;;;;;;;5073137;28;20433;-74
2023/03/11 02:28:29;;;;;;;20.77;3.25;;;;;;;;;;5082778;28;20158;-75
2023/03/11 02:30:55;;;;;;;18.05;2.78;;;;;;;;;;5073471;28;20238;-74
2023/03/11 02:33:23;;;;;;;13.05;4.22;;;;;;;;;;5074325;28;20040;-74
2023/03/11 02:35:49;;;;;;;19.40;3.72;;;;;;;;;;5069173;28;20549;-74
2023/03/11 02:38:15;;;;;;;13.32;2.95;;;;;;;;;;5073546;28;20629;-74
2023/03/11 02:40:47;;;;;;;16.27;3.70;;;;;;;;;;5075069;28;20020;-74
2023/03/11 02:43:15;;;;;;;12.85;2.60;;;;;;;;;;5076476;28;20107;-74
2023/03/11 02:45:43;;;;;;;15.45;3.33;;;;;;;;;;5075488;28;20066;-74
2023/03/11 02:48:11;;;;;;;16.02;3.80;;;;;;;;;;5079792;28;20055;-74
2023/03/11 02:50:37;;;;;;;19.58;3.25;;;;;;;;;;5070599;28;20035;-74
2023/03/11 02:53:05;;;;;;;18.30;3.35;;;;;;;;;;5077089;28;20070;-74
2023/03/11 02:55:31;;;;;;;16.58;3.75;;;;;;;;;;5078672;28;20042;-74
2023/03/11 02:57:57;;;;;;;15.25;3.60;;;;;;;;;;5079071;28;20608;-74
2023/03/11 03:00:23;;;;;;;26.48;4.60;;;;;;;;;;5072785;28;20734;-74
2023/03/11 03:02:51;;;;;;;22.60;3.72;;;;;;;;;;5078140;28;20627;-73
2023/03/11 03:05:19;;;;;;;15.07;3.72;;;;;;;;;;5069290;28;20020;-74
2023/03/11 03:07:47;;;;;;;21.52;3.53;;;;;;;;;;5078392;28;20028;-74
2023/03/11 03:10:14;;;;;;;24.73;4.68;;;;;;;;;;5070245;28;20012;-74
2023/03/11 03:12:40;;;;;;;21.80;3.88;;;;;;;;;;5076592;28;20036;-74
2023/03/11 03:15:07;;;;;;;15.23;3.47;;;;;;;;;;5071508;28;20016;-74
2023/03/11 03:17:33;;;;;;;17.02;3.45;;;;;;;;;;5074248;28;20059;-74
2023/03/11 03:19:59;;;;;;;14.93;3.90;;;;;;;;;;5071788;28;20188;-74
2023/03/11 03:22:26;;;;;;;11.52;4.00;;;;;;;;;;5071157;28;20033;-74
2023/03/11 03:24:52;;;;;;;16.10;2.95;;;;;;;;;;5072691;28;20019;-74
2023/03/11 03:27:19;;;;;;;17.48;3.38;;;;;;;;;;5072912;28;20035;-74
2023/03/11 03:29:45;;;;;;;9.35;2.85;;;;;;;;;;5073659;28;20044;-74
2023/03/11 03:32:11;;;;;;;19.30;3.42;;;;;;;;;;5069937;28;20123;-74
2023/03/11 03:34:37;;;;;;;19.88;3.65;;;;;;;;;;5073740;28;20705;-74
2023/03/11 03:37:04;;;;;;;18.38;4.07;;;;;;;;;;5069724;28;20081;-74
2023/03/11 03:39:30;;;;;;;11.98;2.47;;;;;;;;;;5072315;28;20146;-74
2023/03/11 03:41:56;;;;;;;15.13;2.65;;;;;;;;;;5071569;28;20147;-74
2023/03/11 03:44:22;;;;;;;14.98;3.35;;;;;;;;;;5068991;28;20113;-74
2023/03/11 03:46:48;;;;;;;12.30;3.38;;;;;;;;;;5072204;28;20527;-74
2023/03/11 03:49:14;;;;;;;15.48;2.78;;;;;;;;;;5077403;28;20168;-74
2023/03/11 03:51:41;;;;;;;17.80;3.13;;;;;;;;;;5075532;28;20024;-73
2023/03/11 03:54:07;;;;;;;12.25;2.90;;;;;;;;;;5083933;28;20059;-74
2023/03/11 03:56:33;;;;;;;15.65;3.03;;;;;;;;;;5089801;28;20479;-74
2023/03/11 03:58:59;;;;;;;13.55;2.88;;;;;;;;;;5086111;28;20126;-74
2023/03/11 04:01:25;;;;;;;14.30;4.15;;;;;;;;;;5082780;28;20108;-74
2023/03/11 04:03:52;;;;;;;18.30;3.22;;;;;;;;;;5088295;28;20093;-74
2023/03/11 04:06:19;;;;;;;18.85;3.80;;;;;;;;;;5100291;28;20024;-74
2023/03/11 04:08:46;;;;;;;12.00;3.22;;;;;;;;;;5089782;28;20024;-74
2023/03/11 04:11:13;;;;;;;12.93;2.50;;;;;;;;;;5084561;28;20522;-74
2023/03/11 04:13:40;;;;;;;19.02;3.50;;;;;;;;;;5084651;28;20032;-74
2023/03/11 04:16:07;;;;;;;11.70;2.70;;;;;;;;;;5092265;28;20024;-74
2023/03/11 04:18:33;;;;;;;13.50;3.25;;;;;;;;;;5075745;28;20115;-74
2023/03/11 04:20:59;;;;;;;11.07;2.42;;;;;;;;;;5084121;28;20055;-74
2023/03/11 04:23:25;;;;;;;12.05;3.25;;;;;;;;;;5081705;28;20154;-74
2023/03/11 04:25:52;;;;;;;11.48;2.70;;;;;;;;;;5082083;28;20024;-73
2023/03/11 04:28:18;;;;;;;19.70;3.47;;;;;;;;;;5077083;28;20100;-74
2023/03/11 04:30:45;;;;;;;14.05;2.47;;;;;;;;;;5077194;28;20119;-74
2023/03/11 04:33:11;;;;;;;14.85;3.30;;;;;;;;;;5080136;28;20100;-74
2023/03/11 04:35:38;;;;;;;15.80;3.00;;;;;;;;;;5077799;28;20182;-74
2023/03/11 04:38:04;;;;;;;16.95;4.10;;;;;;;;;;5085273;28;20031;-74
2023/03/11 04:40:31;;;;;;;12.68;2.63;;;;;;;;;;5084851;28;20184;-74
2023/03/11 04:42:57;;;;;;;14.18;3.50;;;;;;;;;;5079722;28;20036;-74
2023/03/11 04:45:23;;;;;;;21.90;3.78;;;;;;;;;;5094413;28;20107;-74
2023/03/11 04:47:52;;;;;;;14.75;2.80;;;;;;;;;;5080663;28;20024;-73
2023/03/11 04:50:19;;;;;;;16.50;2.78;;;;;;;;;;5085516;28;20097;-74
2023/03/11 04:52:45;;;;;;;15.23;3.60;;;;;;;;;;5080674;28;20044;-74
2023/03/11 04:55:12;;;;;;;25.38;4.07;;;;;;;;;;5083551;28;20085;-74
2023/03/11 04:57:39;;;;;;;20.83;3.40;;;;;;;;;;5083258;28;20112;-74
2023/03/11 05:00:08;;;;;;;15.82;3.47;;;;;;;;;;5077458;28;20024;-73
2023/03/11 05:02:34;;;;;;;10.35;2.70;;;;;;;;;;5088734;28;20024;-74
2023/03/11 05:05:01;;;;;;;13.55;2.72;;;;;;;;;;5080667;28;20170;-74
2023/03/11 05:07:27;;;;;;;14.88;2.88;;;;;;;;;;5073903;28;20123;-74
2023/03/11 05:09:53;;;;;;;11.88;2.55;;;;;;;;;;5076096;28;20119;-74
2023/03/11 05:12:19;;;;;;;14.90;2.83;;;;;;;;;;5073150;28;20031;-74
2023/03/11 05:14:45;;;;;;;16.83;3.17;;;;;;;;;;5078787;28;20032;-73
2023/03/11 05:17:13;;;;;;;16.65;2.90;;;;;;;;;;5078546;28;20108;-74
2023/03/11 05:19:40;;;;;;;14.27;2.42;;;;;;;;;;5076291;28;20649;-74
2023/03/11 05:22:06;;;;;;;9.48;2.80;;;;;;;;;;5073395;28;20032;-74
2023/03/11 05:24:33;;;;;;;16.52;3.55;;;;;;;;;;5087092;28;20094;-74
2023/03/11 05:27:00;;;;;;;15.52;3.80;;;;;;;;;;5077283;28;20024;-74
2023/03/11 05:29:26;;;;;;;12.15;2.75;;;;;;;;;;5068477;28;20028;-73
2023/03/11 05:31:53;;;;;;;10.98;2.47;;;;;;;;;;5079645;28;20041;-73
2023/03/11 05:34:20;;;;;;;10.75;2.50;;;;;;;;;;5080057;28;20038;-74
2023/03/11 05:36:46;;;;;;;10.73;2.83;;;;;;;;;;5075406;28;20384;-73
2023/03/11 05:39:13;;;;;;;14.02;3.10;;;;;;;;;;5071984;28;20035;-74
2023/03/11 05:41:39;;;;;;;11.90;2.45;;;;;;;;;;5075453;28;20110;-75
2023/03/11 05:44:06;;;;;;;11.45;3.15;;;;;;;;;;5070910;28;20111;-75
2023/03/11 05:46:33;;;;;;;13.07;3.38;;;;;;;;;;5073083;28;20012;-74
2023/03/11 05:49:00;;;;;;;16.75;3.30;;;;;;;;;;5074959;28;20360;-74
2023/03/11 05:51:26;;;;;;;23.75;3.42;;;;;;;;;;5078436;28;20131;-74
2023/03/11 05:53:52;;;;;;;16.85;3.15;;;;;;;;;;5076309;28;20036;-75
2023/03/11 05:56:20;;;;;;;14.70;2.38;;;;;;;;;;5078286;28;20077;-75
2023/03/11 05:58:46;;;;;;;11.68;2.50;;;;;;;;;;5073725;28;20503;-74
2023/03/11 06:01:13;;;;;;;17.55;2.60;;;;;;;;;;5072102;28;20031;-74
2023/03/11 06:03:40;;;;;;;10.75;2.90;;;;;;;;;;5072690;28;20088;-75
2023/03/11 06:06:07;;;;;;;14.95;3.42;;;;;;;;;;5080849;28;20108;-74
2023/03/11 06:08:34;;;;;;;13.25;2.75;;;;;;;;;;5077339;28;20736;-75
2023/03/11 06:11:04;;;;;;;12.80;2.63;;;;;;;;;;5063551;28;20028;-75
2023/03/11 06:13:38;;;;;;;14.85;3.30;;;;;;;;;;5083040;28;20101;-74
2023/03/11 06:16:10;;;;;;;12.05;3.00;;;;;;;;;;5068410;28;20063;-74
2023/03/11 06:18:37;;;;;;;16.13;3.42;;;;;;;;;;5083102;28;20499;-75
2023/03/11 06:21:03;;;;;;;14.07;3.10;;;;;;;;;;5074755;28;20052;-74
2023/03/11 06:23:30;;;;;;;16.25;3.20;;;;;;;;;;5083603;28;20047;-74
2023/03/11 06:25:57;;;;;;;10.48;2.72;;;;;;;;;;5081920;28;20241;-74
2023/03/11 06:28:24;;;;;;;10.60;2.13;;;;;;;;;;5070022;28;20032;-74
2023/03/11 06:30:50;;;;;;;15.10;2.88;;;;;;;;;;5073624;28;20067;-75
2023/03/11 06:33:16;;;;;;;8.02;2.42;;;;;;;;;;5070282;28;20036;-74
2023/03/11 06:35:42;;;;;;;9.13;2.53;;;;;;;;;;5078282;28;20518;-75
2023/03/11 06:38:09;;;;;;;7.63;1.75;;;;;;;;;;5073492;28;20099;-74
2023/03/11 06:40:37;;;;;;;8.00;2.50;;;;;;;;;;5076620;28;20433;-74
2023/03/11 06:43:03;;;;;;;11.95;2.35;;;;;;;;;;5072703;28;20032;-75
2023/03/11 06:45:29;;;;;;;9.25;1.95;;;;;;;;;;5076075;28;20035;-74
2023/03/11 06:47:55;;;;;;;6.95;2.10;;;;;;;;;;5073317;28;20035;-74
2023/03/11 06:50:22;;;;;;;10.65;2.67;;;;;;;;;;5068764;28;20042;-74
2023/03/11 06:52:51;;;;;;;11.15;2.63;;;;;;;;;;5066046;28;20068;-75
2023/03/11 06:55:17;;;;;;;7.60;2.50;;;;;;;;;;5075648;28;20535;-75
2023/03/11 06:57:44;;;;;;;9.38;2.40;;;;;;;;;;5076036;28;20036;-74
2023/03/11 07:00:11;;;;;;;8.05;2.20;;;;;;;;;;5070079;28;20279;-74
2023/03/11 07:02:37;;;;;;;6.78;1.73;;;;;;;;;;5076917;28;20031;-75
2023/03/11 07:05:06;;;;;;;17.75;2.95;;;;;;;;;;5079018;28;20037;-75
2023/03/11 07:07:32;;;;;;;8.75;2.40;;;;;;;;;;5072189;28;20115;-75
2023/03/11 07:09:59;;;;;;;5.78;1.65;;;;;;;;;;5074978;28;20065;-75
2023/03/11 07:12:25;;;;;;;8.52;1.85;;;;;;;;;;5077926;28;20111;-75
2023/03/11 07:14:57;;;;;;;9.82;1.90;;;;;;;;;;5066096;28;20041;-76
2023/03/11 07:17:23;;;;;;;8.75;1.67;;;;;;;;;;5075373;28;20081;-75
2023/03/11 07:19:50;;;;;;;7.65;1.70;;;;;;;;;;5080728;28;20092;-75
2023/03/11 07:22:16;;;;;;;15.77;3.08;;;;;;;;;;5076587;28;20048;-74
2023/03/11 07:24:45;;;;;;;11.18;2.25;;;;;;;;;;5083572;28;20020;-75
2023/03/11 07:27:11;;;;;;;6.85;2.35;;;;;;;;;;5071327;28;20055;-75
2023/03/11 07:29:37;;;;;;;10.00;2.13;;;;;;;;;;5082656;28;20028;-75
2023/03/11 07:32:04;;;;;;;9.07;1.92;;;;;;;;;;5073869;28;20107;-75
2023/03/11 07:34:30;;;;;;;8.18;1.98;;;;;;;;;;5078900;28;20106;-75
2023/03/11 07:36:56;;;;;;;10.23;2.30;;;;;;;;;;5081679;28;20471;-75
2023/03/11 07:39:22;;;;;;;8.65;2.08;;;;;;;;;;5078468;28;20238;-75
2023/03/11 07:41:49;;;;;;;10.90;2.20;;;;;;;;;;5075138;28;20046;-75
2023/03/11 07:44:16;;;;;;;9.93;2.20;;;;;;;;;;5080417;28;20028;-75
2023/03/11 07:46:42;;;;;;;10.73;2.40;;;;;;;;;;5075029;28;20120;-75
2023/03/11 07:49:08;;;;;;;13.88;2.42;;;;;;;;;;5075346;28;20062;-75
2023/03/11 07:51:36;;;;;;;12.48;2.15;;;;;;;;;;5074054;28;20024;-75
2023/03/11 07:54:02;;;;;;;12.05;3.28;;;;;;;;;;5080030;28;20103;-75
2023/03/11 07:56:30;;;;;;;11.60;2.75;;;;;;;;;;5079149;28;20073;-75
2023/03/11 07:58:57;;;;;;;10.23;2.45;;;;;;;;;;5082297;28;20027;-75
2023/03/11 08:01:25;;;;;;;10.85;2.45;;;;;;;;;;5075039;28;20107;-75
2023/03/11 08:03:57;;;;;;;10.07;2.08;;;;;;;;;;5081069;28;20680;-76
2023/03/11 08:06:28;;;;;;;7.68;1.95;;;;;;;;;;5082346;28;20032;-74
2023/03/11 08:08:54;;;;;;;7.90;2.42;;;;;;;;;;5081765;28;20031;-75
2023/03/11 08:11:21;;;;;;;10.60;2.47;;;;;;;;;;5081506;28;20012;-75
2023/03/11 08:13:48;;;;;;;9.77;2.63;;;;;;;;;;5079587;28;20040;-75
2023/03/11 08:16:15;;;;;;;8.32;2.00;;;;;;;;;;5074110;28;20664;-75
2023/03/11 08:18:42;;;;;;;19.55;2.55;;;;;;;;;;5080357;28;20096;-77
2023/03/11 08:21:10;;;;;;;12.68;2.70;;;;;;;;;;5077820;28;20040;-75
2023/03/11 08:23:36;;;;;;;18.85;3.13;;;;;;;;;;5072260;28;20115;-75
2023/03/11 08:26:03;;;;;;;8.90;2.50;;;;;;;;;;5080139;28;20020;-75
2023/03/11 08:28:30;;;;;;;13.95;2.88;;;;;;;;;;5082275;28;20020;-73
2023/03/11 08:30:56;;;;;;;14.45;3.25;;;;;;;;;;5079531;28;20036;-73
2023/03/11 08:33:22;;;;;;;12.13;2.60;;;;;;;;;;5079916;28;20032;-75
2023/03/11 08:35:48;;;;;;;17.70;3.30;;;;;;;;;;5078204;28;20119;-75
2023/03/11 08:38:14;;;;;;;7.93;2.30;;;;;;;;;;5077131;28;20111;-75
2023/03/11 08:40:41;;;;;;;16.42;3.72;;;;;;;;;;5075899;28;20456;-74
2023/03/11 08:43:07;;;;;;;19.45;3.95;;;;;;;;;;5070916;28;20521;-72
2023/03/11 08:45:33;;;;;;;12.15;2.70;;;;;;;;;;5075514;28;20028;-72
2023/03/11 08:48:00;;;;;;;19.55;3.45;;;;;;;;;;5073975;28;20056;-71
2023/03/11 08:50:26;;;;;;;13.13;3.20;;;;;;;;;;5072067;28;20032;-72
2023/03/11 08:52:53;;;;;;;17.55;2.92;;;;;;;;;;5074374;28;20035;-72
2023/03/11 08:55:24;;;;;;;12.38;2.92;;;;;;;;;;5070706;28;20044;-73
2023/03/11 08:57:51;;;;;;;14.27;3.53;;;;;;;;;;5087398;28;20016;-72
2023/03/11 09:00:17;;;;;;;15.65;3.13;;;;;;;;;;5079785;28;20059;-72
2023/03/11 09:02:44;;;;;;;14.70;3.80;;;;;;;;;;5077625;28;20028;-72
2023/03/11 09:05:10;;;;;;;13.77;3.30;;;;;;;;;;5077811;28;20022;-73
2023/03/11 09:07:36;;;;;;;17.13;3.58;;;;;;;;;;5070075;28;20037;-72
2023/03/11 09:10:03;;;;;;;13.90;3.83;;;;;;;;;;5079026;28;20081;-72
2023/03/11 09:12:29;;;;;;;20.58;3.97;;;;;;;;;;5076044;28;20131;-72
2023/03/11 09:14:55;;;;;;;16.20;3.08;;;;;;;;;;5077549;28;20024;-72
2023/03/11 09:17:22;;;;;;;14.52;2.95;;;;;;;;;;5078169;28;20094;-72
2023/03/11 09:19:48;;;;;;;14.98;3.40;;;;;;;;;;5077195;28;20048;-73
2023/03/11 09:22:14;;;;;;;18.30;4.00;;;;;;;;;;5072602;28;20564;-71
2023/03/11 09:24:40;;;;;;;15.73;3.65;;;;;;;;;;5076268;28;20111;-72
2023/03/11 09:27:06;;;;;;;20.27;4.00;;;;;;;;;;5073527;28;20105;-74
2023/03/11 09:29:33;;;;;;;18.48;4.35;;;;;;;;;;5079086;28;20047;-71
2023/03/11 09:31:59;;;;;;;15.00;3.60;;;;;;;;;;5069172;28;20028;-73
2023/03/11 09:34:25;;;;;;;14.18;3.70;;;;;;;;;;5067913;28;20103;-72
2023/03/11 09:36:51;;;;;;;19.95;4.00;;;;;;;;;;5078271;28;20665;-72
2023/03/11 09:39:17;;;;;;;23.77;4.97;;;;;;;;;;5074206;28;20024;-73
2023/03/11 09:41:54;;;;;;;14.02;3.70;;;;;;;;;;5074672;28;20016;-72
2023/03/11 09:44:23;;;;;;;16.88;3.63;;;;;;;;;;5069824;28;20232;-72
2023/03/11 09:46:59;;;;;;;14.55;3.53;;;;;;;;;;5083370;28;20039;-71
2023/03/11 09:49:25;;;;;;;17.80;3.72;;;;;;;;;;5076136;28;20052;-72
2023/03/11 09:52:11;;;;;;;16.40;3.97;;;;;;;;;;5077855;28;20041;-72
2023/03/11 09:54:39;;;;;;;15.52;4.25;;;;;;;;;;5078225;28;20492;-72
2023/03/11 09:57:09;;;;;;;21.95;4.18;;;;;;;;;;5082241;28;20107;-72
2023/03/11 09:59:36;;;;;;;24.77;4.65;;;;;;;;;;5071419;28;20024;-72
2023/03/11 10:02:04;;;;;;;17.33;4.82;;;;;;;;;;5077074;28;20103;-73
2023/03/11 10:04:50;;;;;;;17.05;5.05;;;;;;;;;;5079080;28;20177;-72
2023/03/11 10:07:20;;;;;;;16.48;4.13;;;;;;;;;;5074225;28;20134;-72
2023/03/11 10:09:55;;;;;;;17.20;4.43;;;;;;;;;;5073880;28;20102;-72
2023/03/11 10:12:33;;;;;;;17.65;4.05;;;;;;;;;;5070240;28;20027;-74
2023/03/11 10:15:16;;;;;;;23.75;4.00;;;;;;;;;;5076675;28;20028;-72
2023/03/11 10:17:42;;;;;;;16.77;3.78;;;;;;;;;;5072506;28;20108;-72
2023/03/11 10:20:27;;;;;;;18.13;3.58;;;;;;;;;;5077227;28;20078;-71
2023/03/11 10:23:00;;;;;;;15.50;3.38;;;;;;;;;;5080212;28;20020;-72
2023/03/11 10:25:33;;;;;;;14.80;2.85;;;;;;;;;;5084120;28;20048;-72
2023/03/11 10:28:20;;;;;;;17.17;3.95;;;;;;;;;;5076061;28;20032;-72
2023/03/11 10:30:57;;;;;;;14.68;3.08;;;;;;;;;;5076090;28;20016;-75
2023/03/11 10:33:40;;;;;;;15.50;3.67;;;;;;;;;;5076799;28;20073;-71
2023/03/11 10:36:09;;;;;;;16.55;3.92;;;;;;;;;;5077026;28;20050;-74
2023/03/11 10:38:41;;;;;;;12.02;2.90;;;;;;;;;;5077703;28;20026;-74
2023/03/11 10:41:15;;;;;;;14.65;3.10;;;;;;;;;;5079048;28;20054;-74
2023/03/11 10:43:44;;;;;;;15.88;2.80;;;;;;;;;;5082914;28;20146;-74
2023/03/11 10:46:19;;;;;;;17.55;4.28;;;;;;;;;;5074031;28;20027;-76
2023/03/11 10:48:45;;;;;;;22.95;3.42;;;;;;;;;;5076027;28;20040;-75
2023/03/11 10:51:21;;;;;;;11.60;3.22;;;;;;;;;;5075200;28;20625;-74
2023/03/11 10:53:57;;;;;;;12.48;3.08;;;;;;;;;;5075153;28;20119;-74
2023/03/11 10:56:33;;;;;;;13.23;2.80;;;;;;;;;;5078570;28;20119;-74
2023/03/11 10:59:00;;;;;;;14.25;3.83;;;;;;;;;;5084350;28;20039;-73
2023/03/11 11:01:27;;;;;;;15.65;3.22;;;;;;;;;;5081932;28;20385;-74
2023/03/11 11:03:55;;;;;;;11.40;3.03;;;;;;;;;;5084560;28;20034;-74
2023/03/11 11:06:34;;;;;;;13.05;3.20;;;;;;;;;;5079463;28;20054;-74
2023/03/11 11:09:19;;;;;;;17.48;3.72;;;;;;;;;;5082082;28;20135;-74
2023/03/11 11:12:01;;;;;;;13.45;3.30;;;;;;;;;;5085453;28;20055;-74
2023/03/11 11:14:41;;;;;;;12.75;3.28;;;;;;;;;;5081600;28;20055;-74
2023/03/11 11:17:16;;;;;;;19.45;4.32;;;;;;;;;;5077142;28;20028;-74
2023/03/11 11:19:46;;;;;;;12.77;3.10;;;;;;;;;;5073680;28;20498;-74
2023/03/11 11:22:15;;;;;;;12.98;3.33;;;;;;;;;;5085415;28;20032;-74
2023/03/11 11:24:45;;;;;;;14.25;3.17;;;;;;;;;;5074496;28;20036;-75
2023/03/11 11:27:18;;;;;;;19.38;3.58;;;;;;;;;;5077481;28;20280;-75
2023/03/11 11:29:44;;;;;;;14.57;3.67;;;;;;;;;;5072244;28;20028;-74
2023/03/11 11:32:17;;;;;;;20.38;3.33;;;;;;;;;;5085605;28;20027;-75
2023/03/11 11:34:53;;;;;;;13.70;3.33;;;;;;;;;;5078930;28;20040;-75
2023/03/11 11:37:19;;;;;;;15.27;4.15;;;;;;;;;;5074612;28;20100;-73
2023/03/11 11:39:50;;;;;;;13.15;3.38;;;;;;;;;;5079346;28;20210;-74
2023/03/11 11:42:17;;;;;;;14.38;3.08;;;;;;;;;;5076702;28;20028;-74
2023/03/11 11:44:46;;;;;;;15.13;4.28;;;;;;;;;;5079985;28;20115;-74
2023/03/11 11:47:15;;;;;;;14.15;4.53;;;;;;;;;;5074021;28;20154;-73
2023/03/11 11:49:48;;;;;;;17.83;3.60;;;;;;;;;;5090205;28;20020;-75
2023/03/11 11:52:24;;;;;;;19.15;4.43;;;;;;;;;;5085906;28;20129;-74
2023/03/11 11:55:05;;;;;;;12.55;3.58;;;;;;;;;;5074015;28;20036;-75
2023/03/11 11:57:31;;;;;;;10.55;3.25;;;;;;;;;;5076703;28;20095;-74
2023/03/11 11:59:57;;;;;;;24.48;5.18;;;;;;;;;;5075573;28;20182;-74
2023/03/11 12:02:24;;;;;;;16.42;4.20;;;;;;;;;;5084127;28;20398;-74
2023/03/11 12:04:59;;;;;;;18.83;4.30;;;;;;;;;;5075642;28;20020;-71
2023/03/11 12:07:32;;;;;;;19.35;5.57;;;;;;;;;;5077780;28;20028;-71
2023/03/11 12:10:12;;;;;;;21.25;4.72;;;;;;;;;;5075482;28;20028;-73
2023/03/11 12:12:44;;;;;;;16.98;4.38;;;;;;;;;;5085535;28;20051;-74
2023/03/11 12:15:11;;;;;;;24.02;5.57;;;;;;;;;;5074934;28;20032;-75
2023/03/11 12:17:40;;;;;;;16.30;5.18;;;;;;;;;;5078235;28;20024;-75
2023/03/11 12:20:16;;;;;;;22.08;6.40;;;;;;;;;;5070156;28;20113;-74
2023/03/11 12:22:42;;;;;;;26.48;5.97;;;;;;;;;;5079390;28;20085;-76
2023/03/11 12:25:28;;;;;;;28.23;5.35;;;;;;;;;;5078434;28;20062;-73
2023/03/11 12:27:54;;;;;;;23.20;4.63;;;;;;;;;;5079684;28;20024;-74
2023/03/11 12:30:26;;;;;;;21.17;4.85;;;;;;;;;;5076119;28;20089;-75
2023/03/11 12:32:52;;;;;;;;;;;;;;;;;;5072450;28;20032;-75
2023/03/11 12:35:29;;;;;;;22.58;4.03;;;;;;;;;;5080928;28;19961;-71
2023/03/11 12:37:57;;;;;;;20.42;4.57;;;;;;;;;;5076561;28;20028;-71
2023/03/11 12:40:41;;;;;;;15.15;3.55;;;;;;;;;;5079036;28;20403;-72
2023/03/11 12:43:32;;;;;;;16.15;3.65;;;;;;;;;;5077176;28;20086;-74
2023/03/11 12:45:59;;;;;;;14.38;3.70;;;;;;;;;;5076108;28;20035;-74
2023/03/11 12:48:32;;;;;;;19.90;3.70;;;;;;;;;;5081476;28;20019;-74
2023/03/11 12:50:59;;;;;;;14.32;3.53;;;;;;;;;;5080300;28;20028;-76
2023/03/11 12:53:42;;;;;;;13.63;3.72;;;;;;;;;;5083384;28;20031;-73
2023/03/11 12:56:27;;;;;;;16.30;4.03;;;;;;;;;;5081589;28;20066;-78
2023/03/11 12:58:53;;;;;;;21.33;4.47;;;;;;;;;;5073581;28;20952;-75
2023/03/11 13:01:38;;;;;;;12.20;4.13;;;;;;;;;;5071191;28;20038;-75
2023/03/11 13:04:16;;;;;;;19.25;3.60;;;;;;;;;;5071707;28;20031;-76
2023/03/11 13:06:42;;;;;;;15.68;5.13;;;;;;;;;;5072797;28;20446;-78
2023/03/11 13:09:13;;;;;;;16.85;5.00;;;;;;;;;;5072706;28;20024;-76
2023/03/11 13:11:47;;;;;;;12.77;3.47;;;;;;;;;;5074409;28;20067;-75
2023/03/11 13:14:20;;;;;;;23.52;4.30;;;;;;;;;;5074316;28;20118;-75
2023/03/11 13:16:46;;;;;;;15.90;3.90;;;;;;;;;;5075186;28;20726;-75
2023/03/11 13:19:33;;;;;;;15.57;3.70;;;;;;;;;;5071343;28;20099;-75
2023/03/11 13:22:00;;;;;;;14.63;3.40;;;;;;;;;;5067051;28;20166;-75
2023/03/11 13:24:28;;;;;;;10.40;2.80;;;;;;;;;;5077792;28;20130;-74
2023/03/11 13:27:08;;;;;;;13.25;3.63;;;;;;;;;;5084149;28;20019;-75
2023/03/11 13:29:35;;;;;;;11.88;3.70;;;;;;;;;;5075130;28;20107;-76
2023/03/11 13:32:01;;;;;;;16.02;3.60;;;;;;;;;;5083479;28;20497;-76
2023/03/11 13:34:39;;;;;;;13.13;3.42;;;;;;;;;;5075697;28;20053;-75
2023/03/11 13:37:08;;;;;;;14.27;3.33;;;;;;;;;;5074349;28;20046;-75
2023/03/11 13:39:53;;;;;;;13.50;3.60;;;;;;;;;;5077979;28;20041;-76
2023/03/11 13:42:31;;;;;;;15.38;3.85;;;;;;;;;;5072893;28;20668;-76
2023/03/11 13:44:58;;;;;;;8.77;3.03;;;;;;;;;;5078977;28;20032;-75
2023/03/11 13:47:25;;;;;;;13.98;3.83;;;;;;;;;;5079060;28;20020;-75
2023/03/11 13:50:09;;;;;;;14.52;3.72;;;;;;;;;;5081524;28;20027;-76
2023/03/11 13:52:38;;;;;;;16.58;4.53;;;;;;;;;;5076689;28;20035;-76
2023/03/11 13:55:15;;;;;;;13.35;3.60;;;;;;;;;;5070600;28;20035;-76
2023/03/11 13:57:48;;;;;;;13.40;3.40;;;;;;;;;;5078454;28;20023;-76
2023/03/11 14:00:22;;;;;;;14.93;4.20;;;;;;;;;;5078902;28;20051;-78
2023/03/11 14:02:50;;;;;;;10.85;3.75;;;;;;;;;;5077067;28;20089;-76
2023/03/11 14:05:22;;;;;;;11.77;3.05;;;;;;;;;;5071959;28;20507;-75
2023/03/11 14:07:48;;;;;;;9.80;3.10;;;;;;;;;;5076117;28;20031;-75
2023/03/11 14:10:19;;;;;;;10.55;2.88;;;;;;;;;;5075904;28;20038;-77
2023/03/11 14:12:45;;;;;;;11.80;3.28;;;;;;;;;;5077102;28;20024;-75
2023/03/11 14:15:22;;;;;;;14.52;3.05;;;;;;;;;;5080807;28;20016;-75
2023/03/11 14:17:50;;;;;;;11.80;3.35;;;;;;;;;;5078528;28;20024;-77
2023/03/11 14:20:17;;;;;;;11.23;3.53;;;;;;;;;;5068133;28;20609;-75
2023/03/11 14:22:48;;;;;;;12.15;3.03;;;;;;;;;;5076865;28;20070;-75
2023/03/11 14:25:26;;;;;;;10.38;2.50;;;;;;;;;;5072978;28;20031;-76
2023/03/11 14:27:54;;;;;;;13.13;3.55;;;;;;;;;;5076718;28;20142;-76
2023/03/11 14:30:22;;;;;;;15.93;3.33;;;;;;;;;;5070963;28;20024;-77
2023/03/11 14:32:55;;;;;;;13.82;3.00;;;;;;;;;;5072331;28;20059;-74
2023/03/11 14:35:22;;;;;;;7.40;2.40;;;;;;;;;;5065808;28;20071;-75
2023/03/11 14:37:48;;;;;;;9.45;3.03;;;;;;;;;;5079713;28;20107;-74
2023/03/11 14:40:29;;;;;;;7.38;2.08;;;;;;;;;;5079713;28;20031;-77